ADDS METAR Data INFO
IDs: Format: Raw Decoded Include TAF

Data at: 0050 UTC 22 Oct 2017

KAWG 220035Z AUTO 16010KT 10SM CLR 22/16 A2985 RMK AO2
KAWG 220015Z AUTO 16011G17KT 10SM CLR 23/16 A2986 RMK AO2
KAWG 212355Z AUTO 17009KT 10SM CLR 23/16 A2986 RMK AO2
KAWG 212335Z AUTO 17009KT 10SM FEW085 23/16 A2986 RMK AO2
KAWG 212315Z AUTO 17007G13KT 10SM SCT085 24/16 A2986 RMK AO2
KAWG 212255Z AUTO 17010KT 10SM FEW070 BKN085 24/16 A2985 RMK AO2
KAWG 212235Z AUTO 18011G18KT 10SM FEW060 SCT070 OVC080 25/16 A2985 RMK AO2
KAWG 212215Z AUTO 19012G17KT 10SM SCT070 BKN080 26/16 A2986 RMK AO2
KAWG 212155Z AUTO 20015G22KT 10SM BKN075 26/16 A2986 RMK AO2
KAWG 212135Z AUTO 20014G22KT 10SM BKN070 26/16 A2986 RMK AO2
KAWG 212115Z AUTO 20013G28KT 10SM BKN075 26/16 A2986 RMK AO2
KAWG 212055Z AUTO 19015G20KT 10SM FEW046 SCT050 BKN070 26/16 A2985 RMK AO2
KAWG 212035Z AUTO 19014G20KT 10SM BKN049 BKN055 26/16 A2986 RMK AO2
KAWG 212015Z AUTO 19018KT 10SM BKN049 26/16 A2985 RMK AO2
KAWG 211955Z AUTO 20022G28KT 10SM FEW050 27/16 A2984 RMK AO2
KAWG 211935Z AUTO 18019G25KT 10SM FEW045 27/16 A2984 RMK AO2
KAWG 211915Z AUTO 18015G25KT 10SM FEW044 27/16 A2985 RMK AO2
KAWG 211855Z AUTO 17016G28KT 10SM FEW043 27/16 A2984 RMK AO2
KAWG 211835Z AUTO 19017G24KT 10SM FEW041 27/16 A2985 RMK AO2
KAWG 211815Z AUTO 18016G25KT 10SM CLR 26/16 A2985 RMK AO2
KAWG 211755Z AUTO 18020G27KT 10SM CLR 26/16 A2986 RMK AO2
KAWG 211735Z AUTO 18020G28KT 10SM CLR 25/16 A2987 RMK AO2
KAWG 211715Z AUTO 19015G23KT 10SM CLR 24/15 A2987 RMK AO2
KAWG 211655Z AUTO 19017G27KT 10SM CLR 24/15 A2988 RMK AO2
KAWG 211635Z AUTO 19020KT 10SM CLR 23/15 A2989 RMK AO2
KAWG 211615Z AUTO 21019G29KT 10SM CLR 23/14 A2991 RMK AO2
KAWG 211555Z AUTO 19021G26KT 10SM CLR 22/14 A2991 RMK AO2
KAWG 211535Z AUTO 19021KT 10SM FEW028 22/14 A2991 RMK AO2
KAWG 211515Z AUTO 20016G25KT 10SM FEW029 21/13 A2992 RMK AO2
KAWG 211455Z AUTO 19018G27KT 10SM CLR 21/13 A2992 RMK AO2
KAWG 211435Z AUTO 18017G22KT 10SM CLR 20/13 A2992 RMK AO2
KAWG 211415Z AUTO 18016G23KT 10SM CLR 19/13 A2992 RMK AO2
KAWG 211355Z AUTO 18017G23KT 10SM CLR 19/12 A2992 RMK AO2
KAWG 211335Z AUTO 18018G23KT 10SM CLR 18/12 A2992 RMK AO2
KAWG 211315Z AUTO 18015G21KT 10SM CLR 17/12 A2991 RMK AO2
KAWG 211255Z AUTO 18013G22KT 10SM CLR 17/12 A2991 RMK AO2
KAWG 211235Z AUTO 17014KT 10SM CLR 17/12 A2991 RMK AO2
KAWG 211215Z AUTO 17014G20KT 10SM CLR 17/12 A2991 RMK AO2
KAWG 211155Z AUTO 17013G18KT 10SM CLR 17/12 A2992 RMK AO2
KAWG 211135Z AUTO 18014G21KT 10SM CLR 17/12 A2992 RMK AO2
KAWG 211115Z AUTO 17017KT 10SM CLR 17/12 A2991 RMK AO2
KAWG 211055Z AUTO 18015G23KT BKN050 17/12 A2991 RMK AO2
KAWG 211035Z AUTO 18017G25KT 10SM OVC049 18/12 A2990 RMK AO2
KAWG 211015Z AUTO 18016G23KT 10SM BKN048 18/12 A2990 RMK AO2
KAWG 210955Z AUTO 17016G21KT 10SM SCT120 18/12 A2990 RMK AO2
KAWG 210935Z AUTO 17016G24KT 10SM SCT120 18/12 A2990 RMK AO2
KAWG 210915Z AUTO 17013G25KT 10SM CLR 18/12 A2990 RMK AO2
KAWG 210855Z AUTO 17015G22KT 10SM CLR 18/12 A2991 RMK AO2
KAWG 210835Z AUTO 17014G24KT 10SM CLR 18/12 A2991 RMK AO2
KAWG 210815Z AUTO 17013G21KT 10SM FEW080 17/11 A2992 RMK AO2
KAWG 210755Z AUTO 17014G19KT 10SM CLR 17/11 A2992 RMK AO2
KAWG 210735Z AUTO 16012KT 10SM FEW075 FEW085 17/11 A2993 RMK AO2
KAWG 210715Z AUTO 16010KT 10SM CLR 16/11 A2994 RMK AO2
KAWG 210655Z AUTO 16012KT 10SM CLR 17/11 A2994 RMK AO2
KAWG 210635Z AUTO 17011KT 10SM CLR 17/11 A2994 RMK AO2
KAWG 210615Z AUTO 17013G18KT 10SM CLR 17/11 A2994 RMK AO2
KAWG 210555Z AUTO 17011KT 10SM CLR 17/11 A2994 RMK AO2
KAWG 210535Z AUTO 16010KT 10SM CLR 16/11 A2994 RMK AO2
KAWG 210515Z AUTO 17010KT 10SM CLR 16/11 A2994 RMK AO2
KAWG 210455Z AUTO 16009KT 10SM CLR 17/10 A2994 RMK AO2
KAWG 210435Z AUTO 17010KT 10SM CLR 17/11 A2994 RMK AO2
KAWG 210415Z AUTO 17012KT 10SM CLR 18/11 A2994 RMK AO2
KAWG 210355Z AUTO 17011KT 10SM CLR 18/10 A2995 RMK AO2
KAWG 210335Z AUTO 17013KT 10SM CLR 18/10 A2994 RMK AO2
KAWG 210315Z AUTO 17012KT 10SM CLR 19/10 A2993 RMK AO2
KAWG 210255Z AUTO 17013KT 10SM CLR 19/10 A2994 RMK AO2
KAWG 210235Z AUTO 17013KT 10SM CLR 19/10 A2994 RMK AO2
KAWG 210215Z AUTO 17013KT 10SM CLR 19/10 A2994 RMK AO2
KAWG 210155Z AUTO 17012G18KT 10SM CLR 19/10 A2994 RMK AO2
KAWG 210135Z AUTO 17013KT 10SM CLR 19/10 A2993 RMK AO2
KAWG 210115Z AUTO 16011KT 10SM CLR 19/10 A2993 RMK AO2
KAWG 210055Z AUTO 16011G17KT 10SM CLR 19/10 A2994 RMK AO2
KAWG 210035Z AUTO 16012KT 10SM CLR 19/10 A2994 RMK AO2
KAWG 210015Z AUTO 16010KT 10SM CLR 19/09 A2995 RMK AO2
KAWG 202355Z AUTO 16011KT 10SM CLR 19/09 A2995 RMK AO2
KAWG 202335Z AUTO 17011KT 10SM CLR 20/09 A2995 RMK AO2
KAWG 202315Z AUTO 17011G17KT 10SM CLR 20/08 A2995 RMK AO2
KAWG 202255Z AUTO 18013G20KT 10SM CLR 21/08 A2995 RMK AO2
KAWG 202235Z AUTO 16011G16KT 10SM CLR 21/08 A2994 RMK AO2
KAWG 202215Z AUTO 17014KT 10SM CLR 22/08 A2995 RMK AO2
KAWG 202155Z AUTO 17010G21KT 10SM CLR 22/09 A2996 RMK AO2
KAWG 202135Z AUTO 17017G23KT 10SM CLR 23/08 A2996 RMK AO2
KAWG 202115Z AUTO 17016G22KT 10SM CLR 24/09 A2997 RMK AO2
KAWG 202055Z AUTO 18019G24KT 10SM CLR 24/09 A2997 RMK AO2
KAWG 202035Z AUTO 17013G24KT 10SM CLR 25/10 A2997 RMK AO2
KAWG 202015Z AUTO 17017G22KT 10SM CLR 25/09 A2998 RMK AO2
KAWG 201955Z AUTO 17016G22KT 10SM CLR 24/10 A2999 RMK AO2
KAWG 201935Z AUTO 17015G21KT 10SM CLR 25/09 A3000 RMK AO2
KAWG 201915Z AUTO 17014KT 10SM CLR 24/10 A3000 RMK AO2
KAWG 201855Z AUTO 18011G17KT 10SM CLR 24/10 A3002 RMK AO2
KAWG 201835Z AUTO 17014KT 10SM CLR 23/10 A3003 RMK AO2
KAWG 201815Z AUTO 18013KT 10SM CLR 23/10 A3004 RMK AO2
KAWG 201755Z AUTO 19011KT 10SM CLR 23/11 A3006 RMK AO2
KAWG 201735Z AUTO 18013KT 10SM CLR 23/11 A3007 RMK AO2
KAWG 201715Z AUTO 18008G15KT 10SM CLR 22/12 A3008 RMK AO2
KAWG 201655Z AUTO 19011KT 10SM CLR 21/12 A3009 RMK AO2
KAWG 201635Z AUTO 17009KT 10SM CLR 21/12 A3009 RMK AO2
KAWG 201615Z AUTO 19008G13KT 10SM CLR 20/12 A3010 RMK AO2
KAWG 201555Z AUTO 18010KT 10SM CLR 20/12 A3011 RMK AO2
KAWG 201535Z AUTO 20011KT 10SM CLR 19/12 A3012 RMK AO2
KAWG 201515Z AUTO 18010KT 10SM CLR 18/12 A3011 RMK AO2
KAWG 201455Z AUTO 18011KT 10SM CLR 17/12 A3012 RMK AO2
KAWG 201435Z AUTO 19012KT 10SM CLR 17/12 A3012 RMK AO2
KAWG 201415Z AUTO 19011KT 10SM CLR 15/12 A3013 RMK AO2
KAWG 201355Z AUTO 19012KT 10SM CLR 15/12 A3013 RMK AO2
KAWG 201335Z AUTO 19009KT 10SM CLR 14/11 A3013 RMK AO2
KAWG 201315Z AUTO 18009KT 10SM CLR 13/11 A3012 RMK AO2
KAWG 201255Z AUTO 18008KT 10SM CLR 12/10 A3012 RMK AO2